createdAt,value
2018-05-02T00:02:23.456Z,28.26
2018-05-02T00:04:55.026Z,28.19
2018-05-02T00:07:25.904Z,28.16
2018-05-02T00:09:57.483Z,28.17
2018-05-02T00:12:30.888Z,28.10
2018-05-02T00:15:03.290Z,28.06
2018-05-02T00:17:35.448Z,27.99
2018-05-02T00:20:07.482Z,27.95
2018-05-02T00:22:40.083Z,28.00
2018-05-02T00:25:14.889Z,28.04
2018-05-02T00:27:47.680Z,28.01
2018-05-02T00:30:20.059Z,28.03
2018-05-02T00:32:51.569Z,28.03
2018-05-02T00:35:23.189Z,28.04
2018-05-02T00:37:54.815Z,28.07
2018-05-02T00:40:26.664Z,28.08
2018-05-02T00:42:58.444Z,28.09
2018-05-02T00:46:57.671Z,28.04
2018-05-02T00:49:29.280Z,28.06
2018-05-02T00:52:00.972Z,28.07
2018-05-02T00:54:32.989Z,28.06
2018-05-02T00:57:05.001Z,28.07
2018-05-02T00:59:36.841Z,28.10
2018-05-02T01:02:08.620Z,28.14
2018-05-02T01:04:40.443Z,28.13
2018-05-02T01:07:12.134Z,28.14
2018-05-02T01:09:43.988Z,28.15
2018-05-02T01:12:15.580Z,28.15
2018-05-02T01:14:47.867Z,28.11
2018-05-02T01:17:18.545Z,28.07
2018-05-02T01:19:50.147Z,28.04
2018-05-02T01:22:21.579Z,28.04
2018-05-02T01:26:26.593Z,27.88
2018-05-02T01:28:58.464Z,27.92
2018-05-02T01:31:30.270Z,27.86
2018-05-02T01:34:02.261Z,27.82
2018-05-02T01:36:34.086Z,27.83
2018-05-02T01:39:05.772Z,27.80
2018-05-02T01:41:37.467Z,27.77
2018-05-02T01:44:09.447Z,27.76
2018-05-02T01:46:41.233Z,27.75
2018-05-02T01:49:24.531Z,27.70
2018-05-02T01:51:57.291Z,27.67
2018-05-02T01:54:30.077Z,27.62
2018-05-02T01:57:02.306Z,27.59
2018-05-02T01:59:35.459Z,27.56
2018-05-02T02:02:08.112Z,27.52
2018-05-02T02:04:40.041Z,27.51
2018-05-02T02:07:12.109Z,27.47
2018-05-02T02:09:45.590Z,27.44
2018-05-02T02:12:18.057Z,27.39
2018-05-02T02:14:50.124Z,27.35
2018-05-02T02:17:22.036Z,27.30
2018-05-02T02:19:54.032Z,27.26
2018-05-02T02:22:28.101Z,27.20
2018-05-02T02:25:00.052Z,27.14
2018-05-02T02:27:32.081Z,27.08
2018-05-02T02:30:03.864Z,27.04
2018-05-02T02:32:35.972Z,26.97
2018-05-02T02:35:07.998Z,26.94
2018-05-02T02:37:40.275Z,26.92
2018-05-02T02:40:12.075Z,26.86
2018-05-02T02:42:44.003Z,26.77
2018-05-02T02:45:15.548Z,26.70
2018-05-02T02:47:47.449Z,26.65
2018-05-02T02:50:19.135Z,26.61
2018-05-02T02:52:50.709Z,26.52
2018-05-02T02:55:22.481Z,26.44
2018-05-02T02:57:54.819Z,26.36
2018-05-02T03:00:26.695Z,26.32
2018-05-02T03:02:59.555Z,26.25
2018-05-02T03:05:31.148Z,26.20
2018-05-02T03:08:03.051Z,26.13
2018-05-02T03:10:34.913Z,26.12
2018-05-02T03:14:57.891Z,26.06
2018-05-02T03:18:30.433Z,25.97
2018-05-02T03:21:02.335Z,25.93
2018-05-02T03:23:39.420Z,25.87
2018-05-02T03:26:11.454Z,25.81
2018-05-02T03:28:43.609Z,25.74
2018-05-02T03:31:16.622Z,25.70
2018-05-02T03:33:48.543Z,25.67
2018-05-02T03:37:36.272Z,25.59
2018-05-02T03:40:10.410Z,25.53
2018-05-02T03:42:45.707Z,25.46
2018-05-02T03:45:18.427Z,25.43
2018-05-02T03:47:51.763Z,25.38
2018-05-02T03:50:23.398Z,25.35
2018-05-02T03:52:54.970Z,25.31
2018-05-02T03:55:27.266Z,25.29
2018-05-02T03:57:59.227Z,25.26
2018-05-02T04:00:41.774Z,25.21
2018-05-02T04:03:24.487Z,25.15
2018-05-02T04:09:09.034Z,25.17
2018-05-02T04:11:42.847Z,25.16
2018-05-02T04:14:14.538Z,25.20
2018-05-02T04:16:46.540Z,25.20
2018-05-02T04:19:18.557Z,25.19
2018-05-02T04:21:50.539Z,25.14
2018-05-02T04:24:22.463Z,25.12
2018-05-02T04:26:54.050Z,25.09
2018-05-02T04:29:26.334Z,25.01
2018-05-02T04:31:57.974Z,24.94
2018-05-02T04:34:29.855Z,24.87
2018-05-02T04:37:00.502Z,24.82
2018-05-02T04:39:33.103Z,24.76
2018-05-02T04:42:05.278Z,24.73
2018-05-02T04:44:37.186Z,24.68
2018-05-02T04:47:09.122Z,24.63
2018-05-02T04:49:41.744Z,24.54
2018-05-02T04:52:14.578Z,24.48
2018-05-02T04:54:47.554Z,24.40
2018-05-02T04:57:21.268Z,24.35
2018-05-02T04:59:54.339Z,24.33
2018-05-02T05:02:28.589Z,24.31
2018-05-02T05:05:01.606Z,24.27
2018-05-02T05:07:33.979Z,24.25
2018-05-02T05:10:06.951Z,24.19
2018-05-02T05:12:39.975Z,24.14
2018-05-02T05:15:14.797Z,24.08
2018-05-02T05:17:48.440Z,24.07
2018-05-02T05:20:22.437Z,24.07
2018-05-02T05:22:55.952Z,24.05
2018-05-02T05:25:27.812Z,24.07
2018-05-02T05:27:59.468Z,24.00
2018-05-02T05:30:31.105Z,23.96
2018-05-02T05:33:03.131Z,23.94
2018-05-02T05:35:36.472Z,23.91
2018-05-02T05:38:08.074Z,23.89
2018-05-02T05:40:39.898Z,23.84
2018-05-02T05:43:11.426Z,23.81
2018-05-02T05:45:43.109Z,23.78
2018-05-02T05:48:15.326Z,23.82
2018-05-02T05:50:46.929Z,23.82
2018-05-02T05:53:18.967Z,23.76
2018-05-02T05:55:52.306Z,23.70
2018-05-02T05:58:25.730Z,23.64
2018-05-02T06:00:59.525Z,23.59
2018-05-02T06:03:33.708Z,23.53
2018-05-02T06:06:07.722Z,23.52
2018-05-02T06:08:41.246Z,23.49
2018-05-02T06:11:13.864Z,23.48
2018-05-02T06:13:47.565Z,23.46
2018-05-02T06:16:20.691Z,23.43
2018-05-02T06:18:54.977Z,23.39
2018-05-02T06:21:28.448Z,23.34
2018-05-02T06:24:02.573Z,23.31
2018-05-02T06:26:35.649Z,23.30
2018-05-02T06:29:09.076Z,23.26
2018-05-02T06:31:42.113Z,23.25
2018-05-02T06:34:15.134Z,23.26
2018-05-02T06:36:48.534Z,23.28
2018-05-02T06:39:22.458Z,23.22
2018-05-02T06:41:55.510Z,23.14
2018-05-02T06:44:28.530Z,23.06
2018-05-02T06:47:01.482Z,22.98
2018-05-02T06:49:34.461Z,23.00
2018-05-02T06:52:07.993Z,23.01
2018-05-02T06:54:41.093Z,23.01
2018-05-02T06:57:13.674Z,23.04
2018-05-02T06:59:47.293Z,23.04
2018-05-02T07:02:20.578Z,23.02
2018-05-02T07:04:53.450Z,22.98
2018-05-02T07:07:26.556Z,22.91
2018-05-02T07:09:59.747Z,22.83
2018-05-02T07:12:33.447Z,22.80
2018-05-02T07:15:06.296Z,22.80
2018-05-02T07:17:39.580Z,22.83
2018-05-02T07:20:13.479Z,22.82
2018-05-02T07:22:46.003Z,22.77
2018-05-02T07:25:19.720Z,22.71
2018-05-02T07:27:52.462Z,22.67
2018-05-02T07:30:25.531Z,22.65
2018-05-02T07:32:58.636Z,22.60
2018-05-02T07:35:31.172Z,22.57
2018-05-02T07:38:03.970Z,22.58
2018-05-02T07:40:37.472Z,22.55
2018-05-02T07:43:10.666Z,22.58
2018-05-02T07:45:43.461Z,22.57
2018-05-02T07:48:16.489Z,22.55
2018-05-02T07:50:49.486Z,22.54
2018-05-02T07:53:22.293Z,22.49
2018-05-02T07:55:55.210Z,22.46
2018-05-02T07:58:28.596Z,22.43
2018-05-02T08:01:02.380Z,22.35
2018-05-02T08:03:35.762Z,22.28
2018-05-02T08:06:08.795Z,22.28
2018-05-02T08:08:41.587Z,22.24
2018-05-02T08:11:14.596Z,22.22
2018-05-02T08:13:47.470Z,22.20
2018-05-02T08:16:20.376Z,22.17
2018-05-02T08:18:53.454Z,22.08
2018-05-02T08:21:26.595Z,22.02
2018-05-02T08:23:59.467Z,21.92
2018-05-02T08:26:32.533Z,21.88
2018-05-02T08:29:06.097Z,21.85
2018-05-02T08:31:39.483Z,21.75
2018-05-02T08:34:12.113Z,21.70
2018-05-02T08:36:45.008Z,21.64
2018-05-02T08:39:17.833Z,21.58
2018-05-02T08:41:49.530Z,21.49
2018-05-02T08:44:22.262Z,21.47
2018-05-02T08:46:55.160Z,21.43
2018-05-02T08:49:28.007Z,21.41
2018-05-02T08:52:01.340Z,21.35
2018-05-02T08:54:35.353Z,21.27
2018-05-02T08:57:07.535Z,21.22
2018-05-02T08:59:40.467Z,21.19
2018-05-02T09:02:13.485Z,21.17
2018-05-02T09:04:46.681Z,21.12
2018-05-02T09:07:20.383Z,21.06
2018-05-02T09:09:53.110Z,21.04
2018-05-02T09:12:26.653Z,21.03
2018-05-02T09:14:59.874Z,20.96
2018-05-02T09:17:33.278Z,20.95
2018-05-02T09:20:06.306Z,20.93
2018-05-02T09:22:39.482Z,20.90
2018-05-02T09:25:12.308Z,20.87
2018-05-02T09:27:45.311Z,20.84
2018-05-02T09:30:17.478Z,20.83
2018-05-02T09:32:50.443Z,20.81
2018-05-02T09:35:23.414Z,20.81
2018-05-02T09:37:56.605Z,20.80
2018-05-02T09:40:29.950Z,20.71
2018-05-02T09:43:02.945Z,20.65
2018-05-02T09:45:36.336Z,20.61
2018-05-02T09:48:09.398Z,20.58
2018-05-02T09:50:42.977Z,20.57
2018-05-02T09:53:16.535Z,20.58
2018-05-02T09:55:49.407Z,20.59
2018-05-02T09:58:22.246Z,20.59
2018-05-02T10:00:55.322Z,20.55
2018-05-02T10:03:28.250Z,20.50
2018-05-02T10:06:01.320Z,20.51
2018-05-02T10:08:34.609Z,20.52
2018-05-02T10:11:07.409Z,20.51
2018-05-02T10:13:41.399Z,20.49
2018-05-02T10:16:13.809Z,20.48
2018-05-02T10:18:46.794Z,20.46
2018-05-02T10:21:19.958Z,20.42
2018-05-02T10:23:52.741Z,20.35
2018-05-02T10:26:25.413Z,20.29
2018-05-02T10:28:58.571Z,20.25
2018-05-02T10:31:31.256Z,20.24
2018-05-02T10:34:03.638Z,20.22
2018-05-02T10:36:37.334Z,20.19
2018-05-02T10:39:11.241Z,20.17
2018-05-02T10:41:44.377Z,20.12
2018-05-02T10:44:17.544Z,20.08
2018-05-02T10:46:51.081Z,20.03
2018-05-02T10:49:24.412Z,20.01
2018-05-02T10:51:57.683Z,19.96
2018-05-02T10:54:31.243Z,19.92
2018-05-02T10:57:04.542Z,19.89
2018-05-02T10:59:38.692Z,19.85
2018-05-02T11:02:12.537Z,19.80
2018-05-02T11:04:46.544Z,19.75
2018-05-02T11:07:19.250Z,19.71
2018-05-02T11:09:52.542Z,19.68
2018-05-02T11:12:25.241Z,19.62
2018-05-02T11:14:58.238Z,19.63
2018-05-02T11:17:31.534Z,19.64
2018-05-02T11:20:04.676Z,19.61
2018-05-02T11:22:37.511Z,19.63
2018-05-02T11:25:10.450Z,19.59
2018-05-02T11:27:43.637Z,19.59
2018-05-02T11:30:17.122Z,19.57
2018-05-02T11:32:50.241Z,19.48
2018-05-02T11:35:22.933Z,19.42
2018-05-02T11:37:56.655Z,19.33
2018-05-02T11:40:29.553Z,19.25
2018-05-02T11:43:02.987Z,19.13
2018-05-02T11:45:35.454Z,19.11
2018-05-02T11:48:07.914Z,19.09
2018-05-02T11:50:40.931Z,19.04
2018-05-02T11:53:14.461Z,19.04
2018-05-02T11:55:47.406Z,19.06
2018-05-02T11:58:20.104Z,19.06
2018-05-02T12:00:53.663Z,19.09
2018-05-02T12:03:26.429Z,19.13
2018-05-02T12:05:59.407Z,19.13
2018-05-02T12:08:32.920Z,19.12
2018-05-02T12:11:05.933Z,19.14
2018-05-02T12:13:38.757Z,19.15
2018-05-02T12:16:12.383Z,19.12
2018-05-02T12:18:45.538Z,19.10
2018-05-02T12:21:18.792Z,19.08
2018-05-02T12:23:50.173Z,19.04
2018-05-02T12:26:23.573Z,19.00
2018-05-02T12:28:57.234Z,18.91
2018-05-02T12:31:29.969Z,18.93
2018-05-02T12:34:03.018Z,18.92
2018-05-02T12:36:35.954Z,18.88
2018-05-02T12:39:07.461Z,18.84
2018-05-02T12:41:40.261Z,18.85
2018-05-02T12:44:13.431Z,18.85
2018-05-02T12:46:46.419Z,18.80
2018-05-02T12:49:19.088Z,18.76
2018-05-02T12:51:52.767Z,18.75
2018-05-02T12:54:26.428Z,18.77
2018-05-02T12:56:59.565Z,18.78
2018-05-02T12:59:32.999Z,18.75
2018-05-02T13:02:06.627Z,18.74
2018-05-02T13:04:39.655Z,18.69
2018-05-02T13:07:12.604Z,18.64
2018-05-02T13:09:46.435Z,18.60
2018-05-02T13:12:19.405Z,18.63
2018-05-02T13:14:52.406Z,18.64
2018-05-02T13:17:25.706Z,18.66
2018-05-02T13:19:59.427Z,18.62
2018-05-02T13:22:32.446Z,18.54
2018-05-02T13:25:05.729Z,18.52
2018-05-02T13:27:39.263Z,18.50
2018-05-02T13:30:11.932Z,18.50
2018-05-02T13:32:44.495Z,18.53
2018-05-02T13:35:17.684Z,18.53
2018-05-02T13:37:50.703Z,18.56
2018-05-02T13:40:23.870Z,18.59
2018-05-02T13:42:57.037Z,18.61
2018-05-02T13:45:31.069Z,18.60
2018-05-02T13:48:05.079Z,18.61
2018-05-02T13:50:38.613Z,18.62
2018-05-02T13:53:12.537Z,18.61
2018-05-02T13:55:45.323Z,18.63
2018-05-02T13:58:22.367Z,18.64
2018-05-02T14:00:55.952Z,18.66
2018-05-02T14:03:28.944Z,18.66
2018-05-02T14:06:02.092Z,18.64
2018-05-02T14:08:35.023Z,18.61
2018-05-02T14:11:08.490Z,18.58
2018-05-02T14:13:41.737Z,18.57
2018-05-02T14:16:14.734Z,18.55
2018-05-02T14:18:47.944Z,18.55
2018-05-02T14:21:21.212Z,18.54
2018-05-02T14:23:54.324Z,18.50
2018-05-02T14:26:27.678Z,18.48
2018-05-02T14:29:00.425Z,18.48
2018-05-02T14:31:33.363Z,18.46
2018-05-02T14:34:06.462Z,18.43
2018-05-02T14:39:11.616Z,18.40
2018-05-02T14:41:44.669Z,18.40
2018-05-02T14:44:18.473Z,18.36
2018-05-02T14:46:51.006Z,18.38
2018-05-02T14:49:24.633Z,18.42
2018-05-02T14:51:57.596Z,18.45
2018-05-02T14:54:30.630Z,18.44
2018-05-02T14:57:02.492Z,18.41
2018-05-02T14:59:35.552Z,18.42
2018-05-02T15:02:08.224Z,18.46
2018-05-02T15:04:41.695Z,18.44
2018-05-02T15:07:14.816Z,18.43
2018-05-02T15:09:48.547Z,18.48
2018-05-02T15:13:26.472Z,18.47
2018-05-02T15:15:59.435Z,18.52
2018-05-02T15:18:32.435Z,18.51
2018-05-02T15:21:05.584Z,18.45
2018-05-02T15:23:38.397Z,18.46
2018-05-02T15:26:11.563Z,18.46
2018-05-02T15:28:45.154Z,18.46
2018-05-02T15:31:18.402Z,18.52
2018-05-02T15:33:51.328Z,18.54
2018-05-02T15:36:23.943Z,18.48
2018-05-02T15:38:56.935Z,18.47
2018-05-02T15:41:29.922Z,18.50
2018-05-02T15:44:03.012Z,18.51
2018-05-02T15:46:36.495Z,18.55
2018-05-02T15:49:09.373Z,18.58
2018-05-02T15:51:42.651Z,18.60
2018-05-02T15:54:15.549Z,18.63
2018-05-02T15:56:49.400Z,18.65
2018-05-02T15:59:22.458Z,18.68
2018-05-02T16:01:55.563Z,18.69
2018-05-02T16:04:28.433Z,18.68
2018-05-02T16:07:01.572Z,18.70
2018-05-02T16:09:34.327Z,18.72
2018-05-02T16:12:05.815Z,18.71
2018-05-02T16:14:37.404Z,18.73
2018-05-02T16:17:08.932Z,18.79
2018-05-02T16:19:40.746Z,18.84
2018-05-02T16:22:12.511Z,18.91
2018-05-02T16:24:44.588Z,18.95
2018-05-02T16:27:18.283Z,18.94
2018-05-02T16:29:50.026Z,18.96
2018-05-02T16:32:22.250Z,19.00
2018-05-02T16:36:17.785Z,19.03
2018-05-02T16:38:49.540Z,19.07
2018-05-02T16:41:21.321Z,19.10
2018-05-02T16:43:53.094Z,19.13
2018-05-02T16:46:24.539Z,19.16
2018-05-02T16:48:54.944Z,19.17
2018-05-02T16:51:26.447Z,19.23
2018-05-02T16:53:58.230Z,19.28
2018-05-02T16:56:29.873Z,19.32
2018-05-02T16:59:01.429Z,19.34
2018-05-02T17:01:32.988Z,19.42
2018-05-02T17:04:05.050Z,19.44
2018-05-02T17:06:36.909Z,19.46
2018-05-02T17:09:08.469Z,19.47
2018-05-02T17:11:41.723Z,19.51
2018-05-02T17:14:15.028Z,19.58
2018-05-02T17:16:47.621Z,19.64
2018-05-02T17:19:21.570Z,19.66
2018-05-02T17:21:54.764Z,19.70
2018-05-02T17:24:28.570Z,19.77
2018-05-02T17:27:01.402Z,19.86
2018-05-02T17:29:34.538Z,19.92
2018-05-02T17:32:07.258Z,19.93
2018-05-02T17:34:40.247Z,19.98
2018-05-02T17:37:12.957Z,20.02
2018-05-02T17:39:46.235Z,20.08
2018-05-02T17:42:19.411Z,20.11
2018-05-02T17:44:52.467Z,20.15
2018-05-02T17:47:25.413Z,20.23
2018-05-02T17:49:58.645Z,20.28
2018-05-02T17:52:31.098Z,20.33
2018-05-02T17:55:04.264Z,20.39
2018-05-02T17:57:36.742Z,20.43
2018-05-02T18:00:10.420Z,20.48
2018-05-02T18:02:43.416Z,20.53
2018-05-02T18:05:16.330Z,20.60
2018-05-02T18:07:48.419Z,20.66
2018-05-02T18:10:21.729Z,20.75
2018-05-02T18:12:54.538Z,20.83
2018-05-02T18:15:28.544Z,20.88
2018-05-02T18:18:01.895Z,20.92
2018-05-02T18:20:34.890Z,20.95
2018-05-02T18:23:07.980Z,20.97
2018-05-02T18:25:41.111Z,21.03
2018-05-02T18:28:14.458Z,21.10
2018-05-02T18:30:47.432Z,21.16
2018-05-02T18:33:20.482Z,21.22
2018-05-02T18:35:53.441Z,21.28
2018-05-02T18:38:26.482Z,21.35
2018-05-02T18:40:59.332Z,21.39
2018-05-02T18:43:32.690Z,21.46
2018-05-02T18:46:05.440Z,21.52
2018-05-02T18:48:38.595Z,21.56
2018-05-02T18:51:11.439Z,21.63
2018-05-02T18:53:45.444Z,21.72
2018-05-02T18:56:18.556Z,21.80
2018-05-02T18:58:52.336Z,21.85
2018-05-02T19:01:24.429Z,21.91
2018-05-02T19:03:57.630Z,21.99
2018-05-02T19:06:30.911Z,21.97
2018-05-02T19:09:02.485Z,22.02
2018-05-02T19:11:34.962Z,22.10
2018-05-02T19:14:08.491Z,22.18
2018-05-02T19:16:40.558Z,22.27
2018-05-02T19:19:19.264Z,22.37
2018-05-02T19:21:51.561Z,22.45
2018-05-02T19:24:25.349Z,22.50
2018-05-02T19:26:58.879Z,22.55
2018-05-02T19:29:32.520Z,22.63
2018-05-02T19:32:10.242Z,22.71
2018-05-02T19:34:42.569Z,22.79
2018-05-02T19:37:15.768Z,22.86
2018-05-02T19:39:53.079Z,22.93
2018-05-02T19:42:30.788Z,22.99
2018-05-02T19:45:04.493Z,23.03
2018-05-02T19:47:37.591Z,23.10
2018-05-02T19:50:10.943Z,23.17
2018-05-02T19:52:48.479Z,23.24
2018-05-02T19:55:21.047Z,23.32
2018-05-02T19:57:53.957Z,23.38
2018-05-02T20:00:31.965Z,23.47
2018-05-02T20:03:04.953Z,23.57
2018-05-02T20:05:37.991Z,23.66
2018-05-02T20:10:06.348Z,23.73
2018-05-02T20:12:43.254Z,23.83
2018-05-02T20:15:16.454Z,23.90
2018-05-02T20:17:50.087Z,23.97
2018-05-02T20:20:23.139Z,24.05
2018-05-02T20:22:56.413Z,24.12
2018-05-02T20:25:30.689Z,24.24
2018-05-02T20:28:03.673Z,24.36
2018-05-02T20:30:37.515Z,24.41
2018-05-02T20:33:11.434Z,24.44
2018-05-02T20:35:43.992Z,24.49
2018-05-02T20:38:17.525Z,24.55
2018-05-02T20:40:50.471Z,24.62
2018-05-02T20:43:24.260Z,24.67
2018-05-02T20:45:57.864Z,24.77
2018-05-02T20:48:31.518Z,24.81
2018-05-02T20:51:04.827Z,24.86
2018-05-02T20:53:37.357Z,24.92
2018-05-02T20:56:10.265Z,25.00
2018-05-02T20:58:42.568Z,25.08
2018-05-02T21:01:15.560Z,25.14
2018-05-02T21:03:48.777Z,25.17
2018-05-02T21:06:21.583Z,25.20
2018-05-02T21:08:55.919Z,25.31
2018-05-02T21:11:28.275Z,25.44
2018-05-02T21:14:01.363Z,25.53
2018-05-02T21:16:34.674Z,25.59
2018-05-02T21:19:08.522Z,25.63
2018-05-02T21:21:41.738Z,25.70
2018-05-02T21:24:15.000Z,25.77
2018-05-02T21:26:48.447Z,25.83
2018-05-02T21:29:22.131Z,25.93
2018-05-02T21:31:55.734Z,26.05
2018-05-02T21:34:28.460Z,26.12
2018-05-02T21:37:01.153Z,26.17
2018-05-02T21:39:34.551Z,26.25
2018-05-02T21:42:07.974Z,26.34
2018-05-02T21:44:40.465Z,26.40
2018-05-02T21:47:13.477Z,26.46
2018-05-02T21:49:46.643Z,26.56
2018-05-02T21:52:19.646Z,26.68
2018-05-02T21:54:53.103Z,26.76
2018-05-02T21:57:26.482Z,26.83
2018-05-02T21:59:59.620Z,26.89
2018-05-02T22:02:32.744Z,26.97
2018-05-02T22:05:05.774Z,27.05
2018-05-02T22:07:40.288Z,27.08
2018-05-02T22:10:14.490Z,27.16
2018-05-02T22:12:47.492Z,27.24
2018-05-02T22:15:20.665Z,27.33
2018-05-02T22:17:53.444Z,27.38
2018-05-02T22:20:26.091Z,27.44
2018-05-02T22:22:58.942Z,27.53
2018-05-02T22:25:32.090Z,27.60
2018-05-02T22:28:05.290Z,27.63
2018-05-02T22:30:38.174Z,27.70
2018-05-02T22:33:10.486Z,27.79
2018-05-02T22:35:44.405Z,27.86
2018-05-02T22:38:18.270Z,27.96
2018-05-02T22:40:51.556Z,28.02
2018-05-02T22:43:25.548Z,28.07
2018-05-02T22:45:58.926Z,28.13
2018-05-02T22:48:31.226Z,28.22
2018-05-02T22:51:04.688Z,28.26
2018-05-02T22:53:38.136Z,28.34
2018-05-02T22:56:10.968Z,28.41
2018-05-02T22:58:44.451Z,28.49
2018-05-02T23:01:17.661Z,28.54
2018-05-02T23:03:50.720Z,28.58
2018-05-02T23:06:23.943Z,28.63
2018-05-02T23:08:56.951Z,28.69
2018-05-02T23:11:28.558Z,28.72
2018-05-02T23:14:02.467Z,28.76
2018-05-02T23:16:35.799Z,28.82
2018-05-02T23:19:09.620Z,28.88
2018-05-02T23:21:42.271Z,28.92
2018-05-02T23:24:15.245Z,28.94
2018-05-02T23:26:47.977Z,28.98
2018-05-02T23:29:20.448Z,29.01
2018-05-02T23:31:53.421Z,29.03
2018-05-02T23:34:26.509Z,29.05
2018-05-02T23:37:00.233Z,29.10
2018-05-02T23:39:33.049Z,29.14
2018-05-02T23:42:05.690Z,29.15
2018-05-02T23:45:02.457Z,29.11
2018-05-02T23:47:34.973Z,29.13
2018-05-02T23:50:08.204Z,29.14
2018-05-02T23:52:40.888Z,29.10
2018-05-02T23:55:13.260Z,29.07
2018-05-02T23:57:46.085Z,29.04
